Forside
METAR-TAF:

METAR-TAF

Lufthavne :

Weno, Mikronesien

Breddekreds: 07-28N, længdekreds: 151-51E, højde: 3 m

Aktuelle vejr

Denne rapport blev lavet for 19 minutter siden, kl. 02:51 UTC
Vind 4 kt fra varierende retninger
Temperatur 31°C
Fugtighed 84%
Tryk 1008 hPa
Sigt: 24.1 km
Nogle få skyer i en højde af 1400 ft, Cumulonimbus.
Spredte skyer i en højde af 12000 ft
Overskyet i en højde af 28000 ft

METAR: PTKK 170251Z VRB04KT 15SM FEW014CB SCT120 OVC280 31/28 A2976 RMK CB SE SLP078 8/371 T03140281 57019

Tid: 13:10 (03:10 UTC)

Vejrudsigter

Denne rapport blev lavet for 3 timer og 32 minutter siden, kl. 23:38 UTC
Foreløbig gælder fra 17 på 00 UTC til 17 på 24 UTC
Vind 6 kt fra varierende retninger
Sigt: 10 km
Nogle få skyer i en højde af 1200 ft
Spredte skyer i en højde af 3000 ft
Brudte skyer i en højde af 12000 ft
byger i nærheden

TAF: PTKK 162338Z 1700/1724 VRB06KT P6SM VCSH FEW012 SCT030 BKN120

Vejrobservationer og prognoser fra mere end 4000 lufthavne (METAR og TAF).

De gule og røde prikker repræsenterer de meteorologiske stationer.

Flyt musen over at se navnet på stationen.

Så klik over at se vejr observationer og prognoser.

At skifte det kort: Klik på de grønne knapper med et sort kors for at zoome ind; på den grønne knap med en bindestreg for at zoome ud; eller på de grønne pile for tilstødende kort.


METAR-TAF: